Time;durP1;ratioP1;P1;durP2;ratioP2;P2;SDS_P1;SDS_P2;PMS_P1;PMS_P2;Temp;Humidity;BMP_temperature;BMP_pressure;BME280_temperature;BME280_humidity;BME280_pressure;Samples;Min_cycle;Max_cycle;Signal;HPM_P1;HPM_P2
2024/01/16 00:02:21;;;;;;;7.93;1.53;;;;;;;;;;5024730;28;20183;-70
2024/01/16 00:04:47;;;;;;;1.57;1.00;;;;;;;;;;5030437;28;20209;-70
2024/01/16 00:07:12;;;;;;;4.50;1.00;;;;;;;;;;5026523;28;20174;-70
2024/01/16 00:09:37;;;;;;;3.57;0.80;;;;;;;;;;5029373;28;20270;-70
2024/01/16 00:12:03;;;;;;;6.40;1.00;;;;;;;;;;5018464;28;20187;-70
2024/01/16 00:14:29;;;;;;;1.57;0.90;;;;;;;;;;5020173;28;20174;-71
2024/01/16 00:16:54;;;;;;;6.07;1.67;;;;;;;;;;5017986;28;20225;-70
2024/01/16 00:19:19;;;;;;;5.20;1.00;;;;;;;;;;5015278;28;20232;-70
2024/01/16 00:21:47;;;;;;;5.37;1.30;;;;;;;;;;5015316;28;20213;-71
2024/01/16 00:24:16;;;;;;;7.40;1.07;;;;;;;;;;5015600;28;20183;-70
2024/01/16 00:26:41;;;;;;;3.70;0.80;;;;;;;;;;5014487;28;20183;-70
2024/01/16 00:29:06;;;;;;;4.80;1.13;;;;;;;;;;5028807;28;20206;-70
2024/01/16 00:31:32;;;;;;;10.33;2.10;;;;;;;;;;5023992;28;20186;-70
2024/01/16 00:33:57;;;;;;;6.03;1.40;;;;;;;;;;5029999;28;20622;-70
2024/01/16 00:36:22;;;;;;;7.13;1.73;;;;;;;;;;5030530;28;20205;-70
2024/01/16 00:38:47;;;;;;;1.93;1.23;;;;;;;;;;5022657;28;20194;-70
2024/01/16 00:41:14;;;;;;;8.23;1.70;;;;;;;;;;5027986;28;20201;-70
2024/01/16 00:43:40;;;;;;;6.47;1.00;;;;;;;;;;5021256;28;20178;-70
2024/01/16 00:46:05;;;;;;;8.30;1.70;;;;;;;;;;5031132;28;20244;-70
2024/01/16 00:48:30;;;;;;;3.10;1.70;;;;;;;;;;5025072;28;20214;-70
2024/01/16 00:50:55;;;;;;;8.30;1.70;;;;;;;;;;5021423;28;20244;-70
2024/01/16 00:53:21;;;;;;;10.43;1.60;;;;;;;;;;5020456;28;20625;-70
2024/01/16 00:55:46;;;;;;;6.90;1.50;;;;;;;;;;5003978;28;20214;-70
2024/01/16 00:58:11;;;;;;;7.03;1.67;;;;;;;;;;5018314;28;20194;-70
2024/01/16 01:00:37;;;;;;;3.63;1.60;;;;;;;;;;5020144;28;20258;-70
2024/01/16 01:03:03;;;;;;;8.27;2.27;;;;;;;;;;5021863;28;20586;-70
2024/01/16 01:05:28;;;;;;;7.00;1.80;;;;;;;;;;5018925;28;20171;-70
2024/01/16 01:07:57;;;;;;;6.13;2.27;;;;;;;;;;5023300;28;20202;-70
2024/01/16 01:10:22;;;;;;;6.23;2.60;;;;;;;;;;5005155;28;20259;-70
2024/01/16 01:12:48;;;;;;;7.93;2.23;;;;;;;;;;5026454;28;20178;-70
2024/01/16 01:15:13;;;;;;;5.93;2.00;;;;;;;;;;5018201;28;20224;-70
2024/01/16 01:17:39;;;;;;;3.90;1.70;;;;;;;;;;5030045;28;20268;-70
2024/01/16 01:20:04;;;;;;;7.63;2.67;;;;;;;;;;5030903;28;20174;-70
2024/01/16 01:22:30;;;;;;;4.77;1.23;;;;;;;;;;5028398;28;20745;-70
2024/01/16 01:24:55;;;;;;;3.60;1.50;;;;;;;;;;5019365;28;20175;-70
2024/01/16 01:27:20;;;;;;;5.63;1.87;;;;;;;;;;5011167;28;20179;-70
2024/01/16 01:29:46;;;;;;;6.97;1.50;;;;;;;;;;5026405;28;20187;-70
2024/01/16 01:32:11;;;;;;;3.97;1.30;;;;;;;;;;5029472;28;20198;-70
2024/01/16 01:34:38;;;;;;;4.47;1.30;;;;;;;;;;5028084;28;20198;-70
2024/01/16 01:37:03;;;;;;;5.90;1.00;;;;;;;;;;5018780;28;20202;-70
2024/01/16 01:39:28;;;;;;;6.33;1.30;;;;;;;;;;5023168;28;20728;-70
2024/01/16 01:41:54;;;;;;;5.57;1.13;;;;;;;;;;5016254;28;20170;-70
2024/01/16 01:44:19;;;;;;;2.63;0.80;;;;;;;;;;5015630;28;20225;-70
2024/01/16 01:46:45;;;;;;;3.73;0.87;;;;;;;;;;5019981;28;20262;-70
2024/01/16 01:49:12;;;;;;;3.50;0.57;;;;;;;;;;5021790;28;20544;-70
2024/01/16 01:51:37;;;;;;;6.60;1.27;;;;;;;;;;5022708;28;20601;-70
2024/01/16 01:54:02;;;;;;;2.93;0.93;;;;;;;;;;5026052;28;20261;-70
2024/01/16 01:56:28;;;;;;;8.80;1.77;;;;;;;;;;5018797;28;20202;-70
2024/01/16 01:58:54;;;;;;;4.03;0.53;;;;;;;;;;5019969;28;20226;-70
2024/01/16 02:01:19;;;;;;;5.47;1.10;;;;;;;;;;5020094;28;20689;-70
2024/01/16 02:03:45;;;;;;;3.53;0.73;;;;;;;;;;5019535;28;20182;-70
2024/01/16 02:06:12;;;;;;;5.20;0.60;;;;;;;;;;5025505;28;20194;-70
2024/01/16 02:08:37;;;;;;;3.10;0.77;;;;;;;;;;5019591;28;20221;-70
2024/01/16 02:11:02;;;;;;;2.47;0.50;;;;;;;;;;5023360;28;20646;-70
2024/01/16 02:13:28;;;;;;;0.30;0.27;;;;;;;;;;5020084;28;20509;-70
2024/01/16 02:15:53;;;;;;;1.07;0.40;;;;;;;;;;5024678;28;20218;-70
2024/01/16 02:18:18;;;;;;;0.40;0.30;;;;;;;;;;5019825;28;20290;-68
2024/01/16 02:20:44;;;;;;;1.33;0.40;;;;;;;;;;5020949;28;20175;-70
2024/01/16 02:23:10;;;;;;;1.73;0.30;;;;;;;;;;5025080;28;20173;-69
2024/01/16 02:25:35;;;;;;;0.80;0.40;;;;;;;;;;5023237;28;20182;-69
2024/01/16 02:28:01;;;;;;;2.40;1.33;;;;;;;;;;5022678;28;20190;-69
2024/01/16 02:30:26;;;;;;;2.37;0.47;;;;;;;;;;5022688;28;20167;-69
2024/01/16 02:32:51;;;;;;;2.73;0.33;;;;;;;;;;5009241;28;20182;-67
2024/01/16 02:35:18;;;;;;;1.73;0.20;;;;;;;;;;5024500;28;20205;-68
2024/01/16 02:37:43;;;;;;;2.17;0.50;;;;;;;;;;5022841;28;20194;-69
2024/01/16 02:40:09;;;;;;;1.03;0.40;;;;;;;;;;5028580;28;20661;-69
2024/01/16 02:42:34;;;;;;;1.97;0.37;;;;;;;;;;5024821;28;20170;-69
2024/01/16 02:45:00;;;;;;;1.60;0.37;;;;;;;;;;5028355;28;20201;-68
2024/01/16 02:47:25;;;;;;;4.73;0.63;;;;;;;;;;5032125;28;20178;-71
2024/01/16 02:49:50;;;;;;;4.23;0.50;;;;;;;;;;5029607;28;20595;-69
2024/01/16 02:52:15;;;;;;;1.00;0.50;;;;;;;;;;5025352;28;20207;-69
2024/01/16 02:54:41;;;;;;;3.27;0.53;;;;;;;;;;5023340;28;20719;-69
2024/01/16 02:57:06;;;;;;;0.77;0.60;;;;;;;;;;5026197;28;20175;-69
2024/01/16 02:59:31;;;;;;;6.13;0.80;;;;;;;;;;5024571;28;20341;-69
2024/01/16 03:01:56;;;;;;;5.33;0.80;;;;;;;;;;5014626;28;20182;-67
2024/01/16 03:04:22;;;;;;;2.90;1.17;;;;;;;;;;5030969;28;20225;-69
2024/01/16 03:06:47;;;;;;;4.37;0.47;;;;;;;;;;5028995;28;20633;-69
2024/01/16 03:09:12;;;;;;;5.53;0.73;;;;;;;;;;5027988;28;20330;-68
2024/01/16 03:11:37;;;;;;;6.10;1.17;;;;;;;;;;5030351;28;20308;-68
2024/01/16 03:14:03;;;;;;;4.53;0.50;;;;;;;;;;5032503;28;20182;-68
2024/01/16 03:16:28;;;;;;;2.70;1.13;;;;;;;;;;5026624;28;20557;-69
2024/01/16 03:18:54;;;;;;;2.83;0.70;;;;;;;;;;5027848;28;20703;-68
2024/01/16 03:21:19;;;;;;;8.10;0.90;;;;;;;;;;5032481;28;20626;-69
2024/01/16 03:23:44;;;;;;;6.17;0.93;;;;;;;;;;5030120;28;20709;-69
2024/01/16 03:26:15;;;;;;;2.70;0.83;;;;;;;;;;5024442;28;20681;-69
2024/01/16 03:28:41;;;;;;;5.57;0.90;;;;;;;;;;5026216;28;20622;-69
2024/01/16 03:31:06;;;;;;;2.07;1.00;;;;;;;;;;5032274;28;20189;-68
2024/01/16 03:33:31;;;;;;;3.80;0.90;;;;;;;;;;5031151;28;20191;-70
2024/01/16 03:35:56;;;;;;;1.57;0.80;;;;;;;;;;5026721;28;20202;-68
2024/01/16 03:38:22;;;;;;;7.10;0.90;;;;;;;;;;5009863;28;20599;-69
2024/01/16 03:40:47;;;;;;;2.33;1.17;;;;;;;;;;5029048;28;20170;-68
2024/01/16 03:43:12;;;;;;;4.40;0.80;;;;;;;;;;5030491;28;20624;-69
2024/01/16 03:45:37;;;;;;;2.90;0.50;;;;;;;;;;5030904;28;20178;-69
2024/01/16 03:48:03;;;;;;;1.13;0.50;;;;;;;;;;5031628;28;20210;-68
2024/01/16 03:50:28;;;;;;;4.97;0.80;;;;;;;;;;5031424;28;20555;-69
2024/01/16 03:52:53;;;;;;;6.00;0.77;;;;;;;;;;5026920;28;20179;-69
2024/01/16 03:55:18;;;;;;;2.07;0.80;;;;;;;;;;5024355;28;20669;-69
2024/01/16 03:57:44;;;;;;;2.00;0.70;;;;;;;;;;5027165;28;20198;-68
2024/01/16 04:00:12;;;;;;;1.77;1.03;;;;;;;;;;5022140;28;20179;-70
2024/01/16 04:02:38;;;;;;;6.17;1.30;;;;;;;;;;5024040;28;20261;-69
2024/01/16 04:05:03;;;;;;;4.33;1.10;;;;;;;;;;5027411;28;20336;-69
2024/01/16 04:07:28;;;;;;;0.50;0.50;;;;;;;;;;5028996;28;20201;-69
2024/01/16 04:09:53;;;;;;;3.50;0.80;;;;;;;;;;5022663;28;20178;-69
2024/01/16 04:12:19;;;;;;;5.93;0.80;;;;;;;;;;5026261;28;20664;-68
2024/01/16 04:14:44;;;;;;;1.37;0.80;;;;;;;;;;5030693;28;20171;-69
2024/01/16 04:17:09;;;;;;;3.87;1.30;;;;;;;;;;5031084;28;20546;-69
2024/01/16 04:19:34;;;;;;;3.30;1.03;;;;;;;;;;5009216;28;20217;-69
2024/01/16 04:22:01;;;;;;;2.63;0.90;;;;;;;;;;5030148;28;20699;-68
2024/01/16 04:24:26;;;;;;;3.27;1.17;;;;;;;;;;5025894;28;20726;-69
2024/01/16 04:26:51;;;;;;;3.20;0.97;;;;;;;;;;5024429;28;20549;-70
2024/01/16 04:29:16;;;;;;;3.83;0.80;;;;;;;;;;5032253;28;20210;-69
2024/01/16 04:31:42;;;;;;;3.90;1.10;;;;;;;;;;5027601;28;20190;-68
2024/01/16 04:34:07;;;;;;;5.70;0.90;;;;;;;;;;5013268;28;20229;-68
2024/01/16 04:36:33;;;;;;;3.93;0.83;;;;;;;;;;5026386;28;20754;-69
2024/01/16 04:38:58;;;;;;;1.87;1.03;;;;;;;;;;5030548;28;20190;-68
2024/01/16 04:41:23;;;;;;;5.03;1.10;;;;;;;;;;5025883;28;20190;-69
2024/01/16 04:43:49;;;;;;;3.00;1.17;;;;;;;;;;5029501;28;20225;-69
2024/01/16 04:46:15;;;;;;;1.90;1.20;;;;;;;;;;5028051;28;20261;-68
2024/01/16 04:48:40;;;;;;;3.83;1.23;;;;;;;;;;5031029;28;20273;-69
2024/01/16 04:51:07;;;;;;;2.93;1.50;;;;;;;;;;5031730;28;20182;-69
2024/01/16 04:53:32;;;;;;;3.57;1.70;;;;;;;;;;5029362;28;20244;-67
2024/01/16 04:55:57;;;;;;;4.97;1.60;;;;;;;;;;5031189;28;20206;-69
2024/01/16 04:58:23;;;;;;;5.57;1.10;;;;;;;;;;5027299;28;20201;-68
2024/01/16 05:00:48;;;;;;;1.83;1.20;;;;;;;;;;5027238;28;20198;-69
2024/01/16 05:03:13;;;;;;;1.83;1.17;;;;;;;;;;5026834;28;20180;-69
2024/01/16 05:05:39;;;;;;;3.60;1.23;;;;;;;;;;5025747;28;20326;-69
2024/01/16 05:08:04;;;;;;;2.03;1.10;;;;;;;;;;5027530;28;20202;-69
2024/01/16 05:10:30;;;;;;;4.47;1.23;;;;;;;;;;5028875;28;20986;-69
2024/01/16 05:12:55;;;;;;;2.17;1.17;;;;;;;;;;5030118;28;20178;-69
2024/01/16 05:15:20;;;;;;;2.77;1.07;;;;;;;;;;5029107;28;20222;-69
2024/01/16 05:17:46;;;;;;;3.33;1.37;;;;;;;;;;5027940;28;20202;-68
2024/01/16 05:20:11;;;;;;;2.60;1.70;;;;;;;;;;5031699;28;20712;-68
2024/01/16 05:22:38;;;;;;;4.80;1.80;;;;;;;;;;5030292;28;20280;-69
2024/01/16 05:25:04;;;;;;;3.77;2.23;;;;;;;;;;5009295;28;20247;-69
2024/01/16 05:27:29;;;;;;;5.33;2.20;;;;;;;;;;5023837;28;20698;-69
2024/01/16 05:29:54;;;;;;;7.67;2.67;;;;;;;;;;5025913;28;20600;-69
2024/01/16 05:32:20;;;;;;;5.40;3.17;;;;;;;;;;5026838;28;20317;-68
2024/01/16 05:34:45;;;;;;;5.07;3.60;;;;;;;;;;5030893;28;20225;-69
2024/01/16 05:37:10;;;;;;;9.80;4.20;;;;;;;;;;5009454;28;20179;-69
2024/01/16 05:39:36;;;;;;;5.37;3.87;;;;;;;;;;5009470;28;20425;-69
2024/01/16 05:42:02;;;;;;;6.63;4.00;;;;;;;;;;5027540;28;20179;-69
2024/01/16 05:44:27;;;;;;;4.93;2.90;;;;;;;;;;5026775;28;20661;-69
2024/01/16 05:46:53;;;;;;;7.67;3.40;;;;;;;;;;5010373;28;20185;-69
2024/01/16 05:49:18;;;;;;;4.87;2.97;;;;;;;;;;5006854;28;20206;-69
2024/01/16 05:51:43;;;;;;;6.13;2.97;;;;;;;;;;5032897;28;20174;-69
2024/01/16 05:54:08;;;;;;;5.07;3.07;;;;;;;;;;5029144;28;20178;-68
2024/01/16 05:56:34;;;;;;;5.43;3.73;;;;;;;;;;5007463;28;20289;-69
2024/01/16 05:58:59;;;;;;;5.97;3.10;;;;;;;;;;5029328;28;20466;-70
2024/01/16 06:01:25;;;;;;;4.97;2.70;;;;;;;;;;5027497;28;20292;-69
2024/01/16 06:03:50;;;;;;;4.30;2.80;;;;;;;;;;5022794;28;20183;-69
2024/01/16 06:06:16;;;;;;;6.43;3.23;;;;;;;;;;5024786;28;20187;-70
2024/01/16 06:08:41;;;;;;;7.20;2.80;;;;;;;;;;5026208;28;20206;-69
2024/01/16 06:11:07;;;;;;;4.13;2.63;;;;;;;;;;5027479;28;20286;-69
2024/01/16 06:13:32;;;;;;;5.60;3.03;;;;;;;;;;5028115;28;20669;-69
2024/01/16 06:15:58;;;;;;;6.90;2.97;;;;;;;;;;5027691;28;20212;-69
2024/01/16 06:18:23;;;;;;;12.27;2.53;;;;;;;;;;5023755;28;20637;-69
2024/01/16 06:20:48;;;;;;;3.77;2.63;;;;;;;;;;5031888;28;20179;-69
2024/01/16 06:23:13;;;;;;;6.70;2.40;;;;;;;;;;5022591;28;20608;-69
2024/01/16 06:25:38;;;;;;;3.67;2.20;;;;;;;;;;5026488;28;20270;-69
2024/01/16 06:28:05;;;;;;;6.27;2.20;;;;;;;;;;5000382;28;20251;-69
2024/01/16 06:30:30;;;;;;;4.17;2.07;;;;;;;;;;5004252;28;20617;-69
2024/01/16 06:32:55;;;;;;;13.10;2.80;;;;;;;;;;5022668;28;20178;-69
2024/01/16 06:35:21;;;;;;;6.10;2.87;;;;;;;;;;5026656;28;20206;-70
2024/01/16 06:37:46;;;;;;;8.80;2.17;;;;;;;;;;5022430;28;20237;-69
2024/01/16 06:40:11;;;;;;;5.63;2.23;;;;;;;;;;5028107;28;20213;-69
2024/01/16 06:42:36;;;;;;;4.03;1.80;;;;;;;;;;5022362;28;20546;-69
2024/01/16 06:45:02;;;;;;;5.90;2.00;;;;;;;;;;5021330;28;20183;-69
2024/01/16 06:47:28;;;;;;;10.53;2.03;;;;;;;;;;5025824;28;20573;-69
2024/01/16 06:49:53;;;;;;;6.23;2.10;;;;;;;;;;5024171;28;20178;-69
2024/01/16 06:52:18;;;;;;;4.13;2.43;;;;;;;;;;5026356;28;20177;-69
2024/01/16 06:54:44;;;;;;;5.77;2.40;;;;;;;;;;5025570;28;20178;-69
2024/01/16 06:57:09;;;;;;;5.43;2.03;;;;;;;;;;5024163;28;20210;-69
2024/01/16 06:59:34;;;;;;;9.87;3.10;;;;;;;;;;5007358;28;20198;-69
2024/01/16 07:01:59;;;;;;;8.37;3.27;;;;;;;;;;5027780;28;20182;-69
2024/01/16 07:04:25;;;;;;;11.67;3.50;;;;;;;;;;5029193;28;20178;-67
2024/01/16 07:06:50;;;;;;;9.37;4.00;;;;;;;;;;5002942;28;20189;-69
2024/01/16 07:09:18;;;;;;;8.43;4.07;;;;;;;;;;5027759;28;20209;-69
2024/01/16 07:11:43;;;;;;;12.17;3.90;;;;;;;;;;5028356;28;20185;-69
2024/01/16 07:14:09;;;;;;;10.37;3.90;;;;;;;;;;5027882;28;20182;-69
2024/01/16 07:16:34;;;;;;;11.37;4.37;;;;;;;;;;5026689;28;20217;-69
2024/01/16 07:18:59;;;;;;;6.33;3.67;;;;;;;;;;5028720;28;20229;-69
2024/01/16 07:21:24;;;;;;;11.33;3.90;;;;;;;;;;5027759;28;20574;-69
2024/01/16 07:23:50;;;;;;;5.63;3.90;;;;;;;;;;5029103;28;20265;-70
2024/01/16 07:26:16;;;;;;;3.73;3.03;;;;;;;;;;5027259;28;20528;-69
2024/01/16 07:28:41;;;;;;;4.27;2.77;;;;;;;;;;5029366;28;20206;-68
2024/01/16 07:31:07;;;;;;;6.50;2.50;;;;;;;;;;5011324;28;20190;-68
2024/01/16 07:33:32;;;;;;;7.57;2.83;;;;;;;;;;5026335;28;20197;-69
2024/01/16 07:35:57;;;;;;;9.47;3.00;;;;;;;;;;5011532;28;20295;-69
2024/01/16 07:38:22;;;;;;;5.90;2.10;;;;;;;;;;5029827;28;20639;-69
2024/01/16 07:40:48;;;;;;;10.70;3.13;;;;;;;;;;5027161;28;20185;-69
2024/01/16 07:43:13;;;;;;;7.00;1.77;;;;;;;;;;5027227;28;20190;-69
2024/01/16 07:45:38;;;;;;;6.47;2.20;;;;;;;;;;5026990;28;20186;-68
2024/01/16 07:48:03;;;;;;;5.17;2.50;;;;;;;;;;5012258;28;20203;-67
2024/01/16 07:50:29;;;;;;;7.20;2.70;;;;;;;;;;5033467;28;20277;-68
2024/01/16 07:52:54;;;;;;;7.00;2.53;;;;;;;;;;5031333;28;20710;-69
2024/01/16 07:55:19;;;;;;;9.80;2.73;;;;;;;;;;5033216;28;20251;-68
2024/01/16 07:57:44;;;;;;;6.63;2.00;;;;;;;;;;5032198;28;20201;-69
2024/01/16 08:00:11;;;;;;;2.57;2.00;;;;;;;;;;5023885;28;20634;-69
2024/01/16 08:02:37;;;;;;;5.70;2.33;;;;;;;;;;5029723;28;20568;-69
2024/01/16 08:05:02;;;;;;;6.03;2.33;;;;;;;;;;5026640;28;20174;-69
2024/01/16 08:07:27;;;;;;;3.97;1.67;;;;;;;;;;5028627;28;20183;-68
2024/01/16 08:09:53;;;;;;;6.87;3.67;;;;;;;;;;5029697;28;20178;-68
2024/01/16 08:12:18;;;;;;;9.60;2.53;;;;;;;;;;5032415;28;20166;-69
2024/01/16 08:14:44;;;;;;;4.13;1.83;;;;;;;;;;5030357;28;20641;-68
2024/01/16 08:17:09;;;;;;;5.30;2.30;;;;;;;;;;5030774;28;20218;-68
2024/01/16 08:19:35;;;;;;;2.87;1.80;;;;;;;;;;5098074;23;20230;-72
2024/01/16 08:22:02;;;;;;;3.93;2.03;;;;;;;;;;5013167;28;20601;-72
2024/01/16 08:24:27;;;;;;;3.47;2.03;;;;;;;;;;5013310;28;20557;-72
2024/01/16 08:26:52;;;;;;;5.90;2.73;;;;;;;;;;5012867;28;20187;-72
2024/01/16 08:29:17;;;;;;;4.40;2.43;;;;;;;;;;5012525;28;20211;-72
2024/01/16 08:31:43;;;;;;;6.37;2.27;;;;;;;;;;5013155;28;20184;-72
2024/01/16 08:34:08;;;;;;;9.27;2.40;;;;;;;;;;5009741;28;20666;-72
2024/01/16 08:36:33;;;;;;;4.87;3.13;;;;;;;;;;5010733;28;20202;-72
2024/01/16 08:38:58;;;;;;;7.60;2.60;;;;;;;;;;5012775;28;20639;-72
2024/01/16 08:41:23;;;;;;;8.90;2.73;;;;;;;;;;5013014;28;20600;-72
2024/01/16 08:43:49;;;;;;;4.40;1.87;;;;;;;;;;5011774;28;20266;-73
2024/01/16 08:46:15;;;;;;;8.27;2.53;;;;;;;;;;5012243;28;20205;-72
2024/01/16 08:48:41;;;;;;;11.23;2.53;;;;;;;;;;5012682;28;20206;-72
2024/01/16 08:51:07;;;;;;;10.60;2.00;;;;;;;;;;5011072;28;20242;-72
2024/01/16 08:53:34;;;;;;;10.53;2.63;;;;;;;;;;5011579;28;20265;-72
2024/01/16 08:55:59;;;;;;;1.77;1.50;;;;;;;;;;5009816;28;20685;-72
2024/01/16 08:58:24;;;;;;;8.03;1.97;;;;;;;;;;5012617;28;20203;-72
2024/01/16 09:00:50;;;;;;;7.67;1.77;;;;;;;;;;5012361;28;20190;-71
2024/01/16 09:03:15;;;;;;;8.23;2.10;;;;;;;;;;4994340;28;20233;-73
2024/01/16 09:05:40;;;;;;;6.17;1.83;;;;;;;;;;5011927;28;20183;-72
2024/01/16 09:08:05;;;;;;;3.90;1.80;;;;;;;;;;5011915;28;20210;-72
2024/01/16 09:10:31;;;;;;;9.33;2.63;;;;;;;;;;5010175;28;20179;-72
2024/01/16 09:12:56;;;;;;;6.97;2.70;;;;;;;;;;5009984;28;20559;-73
2024/01/16 09:15:21;;;;;;;8.07;2.23;;;;;;;;;;5010463;28;20199;-72
2024/01/16 09:17:46;;;;;;;7.47;2.10;;;;;;;;;;5011836;28;20539;-72
2024/01/16 09:20:12;;;;;;;5.73;2.60;;;;;;;;;;5012296;28;20194;-71
2024/01/16 09:22:37;;;;;;;8.77;2.33;;;;;;;;;;5010543;28;20203;-71
2024/01/16 09:25:02;;;;;;;8.43;2.47;;;;;;;;;;5010811;28;20183;-71
2024/01/16 09:27:27;;;;;;;6.27;1.97;;;;;;;;;;4994590;28;20179;-72
2024/01/16 09:29:52;;;;;;;4.63;2.10;;;;;;;;;;5012126;28;20225;-71
2024/01/16 09:32:18;;;;;;;6.87;2.13;;;;;;;;;;5010256;28;20250;-71
2024/01/16 09:34:44;;;;;;;4.93;2.40;;;;;;;;;;5008649;28;20189;-72
2024/01/16 09:37:09;;;;;;;3.10;2.23;;;;;;;;;;5011012;28;20203;-72
2024/01/16 09:39:37;;;;;;;6.77;1.80;;;;;;;;;;5009320;28;20282;-72
2024/01/16 09:42:03;;;;;;;2.57;1.40;;;;;;;;;;5010579;28;20175;-72
2024/01/16 09:44:28;;;;;;;8.77;2.30;;;;;;;;;;5027462;28;20185;-72
2024/01/16 09:46:54;;;;;;;2.50;1.70;;;;;;;;;;4993476;28;20241;-72
2024/01/16 09:49:20;;;;;;;2.43;1.90;;;;;;;;;;5010144;28;20669;-72
2024/01/16 09:51:45;;;;;;;5.23;1.87;;;;;;;;;;5009989;28;20713;-72
2024/01/16 09:54:10;;;;;;;2.13;1.30;;;;;;;;;;5012125;28;20510;-72
2024/01/16 09:56:41;;;;;;;4.10;2.27;;;;;;;;;;5010833;28;20701;-73
2024/01/16 09:59:08;;;;;;;3.03;1.40;;;;;;;;;;5010416;28;20302;-72
2024/01/16 10:01:34;;;;;;;5.57;2.10;;;;;;;;;;5010013;28;20194;-72
2024/01/16 10:03:59;;;;;;;2.87;1.70;;;;;;;;;;5010576;28;20192;-73
2024/01/16 10:06:26;;;;;;;6.53;1.50;;;;;;;;;;5006674;28;20183;-72
2024/01/16 10:08:52;;;;;;;5.63;2.00;;;;;;;;;;5010231;28;20230;-72
2024/01/16 10:11:17;;;;;;;3.20;1.40;;;;;;;;;;5010352;28;20611;-71
2024/01/16 10:13:43;;;;;;;3.47;1.63;;;;;;;;;;4993335;28;20680;-72
2024/01/16 10:16:09;;;;;;;6.10;1.40;;;;;;;;;;5010650;28;20272;-72
2024/01/16 10:18:34;;;;;;;4.60;1.40;;;;;;;;;;5010874;28;20306;-72
2024/01/16 10:20:59;;;;;;;2.53;1.20;;;;;;;;;;4992855;28;20183;-72
2024/01/16 10:23:25;;;;;;;7.33;1.57;;;;;;;;;;5011489;28;20183;-72
2024/01/16 10:26:07;;;;;;;6.17;1.83;;;;;;;;;;5010698;28;20187;-72
2024/01/16 10:28:34;;;;;;;5.00;2.10;;;;;;;;;;5011376;28;20206;-72
2024/01/16 10:31:03;;;;;;;3.70;1.90;;;;;;;;;;5008830;28;20237;-72
2024/01/16 10:33:28;;;;;;;4.63;1.70;;;;;;;;;;4992459;28;20180;-71
2024/01/16 10:36:10;;;;;;;3.83;1.40;;;;;;;;;;5010105;28;20206;-72
2024/01/16 10:38:38;;;;;;;6.37;1.70;;;;;;;;;;5010144;28;20206;-72
2024/01/16 10:41:06;;;;;;;3.40;1.53;;;;;;;;;;5008061;28;20623;-71
2024/01/16 10:43:31;;;;;;;3.27;1.90;;;;;;;;;;5005184;28;20193;-73
2024/01/16 10:46:06;;;;;;;2.73;1.90;;;;;;;;;;5008965;28;20676;-72
2024/01/16 10:48:31;;;;;;;2.63;1.23;;;;;;;;;;5010859;28;20341;-72
2024/01/16 10:50:57;;;;;;;2.90;1.60;;;;;;;;;;5011769;28;20657;-72
2024/01/16 10:53:25;;;;;;;4.53;1.80;;;;;;;;;;5011430;28;20636;-71
2024/01/16 10:55:51;;;;;;;2.60;1.63;;;;;;;;;;5008960;28;20293;-71
2024/01/16 10:58:17;;;;;;;2.37;1.40;;;;;;;;;;5009361;28;20692;-72
2024/01/16 11:00:44;;;;;;;5.43;1.60;;;;;;;;;;5009972;28;20301;-72
2024/01/16 11:03:17;;;;;;;4.60;1.60;;;;;;;;;;5009995;28;20175;-72
2024/01/16 11:05:43;;;;;;;5.93;1.60;;;;;;;;;;4992566;28;20676;-72
2024/01/16 11:08:08;;;;;;;4.00;1.33;;;;;;;;;;5010249;28;20206;-72
2024/01/16 11:10:34;;;;;;;5.20;1.67;;;;;;;;;;5009455;28;20245;-72
2024/01/16 11:13:00;;;;;;;5.90;1.70;;;;;;;;;;5025508;28;20183;-72
2024/01/16 11:15:25;;;;;;;2.17;1.77;;;;;;;;;;5009257;28;20214;-72
2024/01/16 11:17:52;;;;;;;3.00;1.70;;;;;;;;;;5012464;28;20209;-72
2024/01/16 11:20:18;;;;;;;4.50;1.80;;;;;;;;;;5011827;28;20175;-72
2024/01/16 11:22:44;;;;;;;4.10;1.60;;;;;;;;;;5012530;28;20257;-72
2024/01/16 11:25:14;;;;;;;3.03;1.83;;;;;;;;;;5028446;28;20266;-72
2024/01/16 11:27:40;;;;;;;5.03;2.17;;;;;;;;;;5013770;28;20174;-73
2024/01/16 11:30:06;;;;;;;4.87;1.60;;;;;;;;;;5031783;28;20183;-72
2024/01/16 11:32:33;;;;;;;3.90;1.73;;;;;;;;;;4994268;28;20233;-72
2024/01/16 11:34:58;;;;;;;2.43;1.90;;;;;;;;;;5014742;28;20267;-72
2024/01/16 11:37:32;;;;;;;5.47;2.27;;;;;;;;;;4995668;28;20729;-73
2024/01/16 11:40:23;;;;;;;3.17;1.90;;;;;;;;;;4996315;28;20214;-72
2024/01/16 11:42:53;;;;;;;2.40;1.70;;;;;;;;;;5012530;28;20175;-72
2024/01/16 11:45:27;;;;;;;6.57;2.00;;;;;;;;;;5013163;28;20206;-72
2024/01/16 11:48:11;;;;;;;6.57;2.20;;;;;;;;;;5005785;28;20198;-72
2024/01/16 11:50:36;;;;;;;7.43;2.30;;;;;;;;;;5012325;28;20190;-73
2024/01/16 11:53:02;;;;;;;7.73;2.43;;;;;;;;;;5013724;28;20179;-72
2024/01/16 11:55:47;;;;;;;4.23;2.00;;;;;;;;;;5017488;28;20202;-72
2024/01/16 11:58:31;;;;;;;5.73;2.00;;;;;;;;;;4973222;28;20353;-72
2024/01/16 12:00:57;;;;;;;3.77;1.53;;;;;;;;;;5013180;28;20274;-73
2024/01/16 12:03:23;;;;;;;4.80;2.00;;;;;;;;;;5013798;28;20262;-72
2024/01/16 12:05:57;;;;;;;5.73;2.10;;;;;;;;;;5009804;28;20545;-72
2024/01/16 12:08:23;;;;;;;3.27;2.27;;;;;;;;;;5012844;28;20281;-73
2024/01/16 12:10:48;;;;;;;4.90;1.93;;;;;;;;;;5009654;28;20251;-72
2024/01/16 12:13:14;;;;;;;5.30;2.47;;;;;;;;;;5013658;28;20232;-72
2024/01/16 12:15:39;;;;;;;3.63;2.00;;;;;;;;;;5013053;28;20203;-72
2024/01/16 12:18:04;;;;;;;6.13;1.80;;;;;;;;;;5013217;28;20207;-72
2024/01/16 12:20:31;;;;;;;5.77;2.10;;;;;;;;;;5011963;28;20183;-72
2024/01/16 12:23:00;;;;;;;4.40;2.63;;;;;;;;;;5013158;28;20187;-73
2024/01/16 12:25:29;;;;;;;6.03;2.50;;;;;;;;;;4995143;28;20241;-72
2024/01/16 12:27:59;;;;;;;6.10;2.37;;;;;;;;;;5013194;28;20202;-73
2024/01/16 12:30:28;;;;;;;4.50;2.47;;;;;;;;;;5012377;28;20183;-72
2024/01/16 12:33:02;;;;;;;2.77;1.83;;;;;;;;;;4992987;28;21281;-72
2024/01/16 12:35:27;;;;;;;4.87;2.83;;;;;;;;;;5010492;28;20216;-72
2024/01/16 12:37:59;;;;;;;3.87;2.13;;;;;;;;;;5008735;28;20293;-72
2024/01/16 12:40:25;;;;;;;2.90;2.07;;;;;;;;;;5013229;28;20174;-72
2024/01/16 12:42:50;;;;;;;6.73;2.57;;;;;;;;;;5015011;28;20189;-73
2024/01/16 12:45:16;;;;;;;7.43;2.67;;;;;;;;;;5011543;28;20552;-72
2024/01/16 12:47:42;;;;;;;2.93;1.77;;;;;;;;;;5010303;28;20186;-72
2024/01/16 12:50:08;;;;;;;4.83;1.80;;;;;;;;;;5012909;28;20179;-72
2024/01/16 12:52:33;;;;;;;3.57;1.80;;;;;;;;;;4995184;28;20178;-72
2024/01/16 12:55:00;;;;;;;4.30;2.00;;;;;;;;;;5012842;28;20183;-73
2024/01/16 12:57:26;;;;;;;5.57;2.20;;;;;;;;;;5011689;28;20286;-72
2024/01/16 12:59:51;;;;;;;6.43;1.80;;;;;;;;;;5011988;28;20210;-72
2024/01/16 13:02:21;;;;;;;4.30;1.60;;;;;;;;;;5012444;28;20183;-72
2024/01/16 13:04:46;;;;;;;10.27;2.00;;;;;;;;;;4995096;28;20175;-72
2024/01/16 13:07:15;;;;;;;2.40;1.30;;;;;;;;;;5010581;28;20194;-72
2024/01/16 13:09:40;;;;;;;3.00;1.70;;;;;;;;;;5011235;28;20210;-73
2024/01/16 13:12:06;;;;;;;4.17;1.80;;;;;;;;;;5011678;28;20190;-72
2024/01/16 13:14:31;;;;;;;4.37;1.93;;;;;;;;;;5012412;28;20175;-72
2024/01/16 13:16:56;;;;;;;4.23;2.20;;;;;;;;;;5011677;28;20206;-72
2024/01/16 13:19:22;;;;;;;3.30;2.00;;;;;;;;;;5011108;28;20294;-72
2024/01/16 13:21:48;;;;;;;5.93;1.80;;;;;;;;;;4994868;28;20561;-72
2024/01/16 13:24:17;;;;;;;3.13;1.80;;;;;;;;;;5011970;28;20211;-72
2024/01/16 13:26:43;;;;;;;4.57;1.80;;;;;;;;;;5011804;28;20575;-72
2024/01/16 13:29:09;;;;;;;3.73;1.83;;;;;;;;;;5007654;28;20211;-73
2024/01/16 13:31:34;;;;;;;3.60;2.13;;;;;;;;;;5011250;28;20245;-72
2024/01/16 13:33:59;;;;;;;5.50;1.93;;;;;;;;;;5011860;28;20249;-73
2024/01/16 13:36:24;;;;;;;5.77;2.00;;;;;;;;;;5009992;28;20238;-72
2024/01/16 13:38:50;;;;;;;4.63;1.93;;;;;;;;;;5010192;28;20570;-74
2024/01/16 13:41:15;;;;;;;5.20;2.10;;;;;;;;;;5011982;28;20716;-73
2024/01/16 13:43:40;;;;;;;5.23;1.87;;;;;;;;;;5010899;28;20237;-73
2024/01/16 13:46:08;;;;;;;11.33;1.83;;;;;;;;;;5011274;28;20249;-73
2024/01/16 13:48:33;;;;;;;2.73;2.10;;;;;;;;;;5010692;28;20202;-72
2024/01/16 13:50:58;;;;;;;5.73;2.37;;;;;;;;;;5011152;28;20183;-72
2024/01/16 13:53:23;;;;;;;3.47;1.77;;;;;;;;;;5011394;28;20244;-72
2024/01/16 13:55:49;;;;;;;5.00;2.00;;;;;;;;;;5011480;28;20387;-73
2024/01/16 13:58:14;;;;;;;6.83;2.17;;;;;;;;;;5009725;28;20203;-72
2024/01/16 14:00:39;;;;;;;3.97;2.10;;;;;;;;;;5010350;28;20178;-72
2024/01/16 14:03:06;;;;;;;5.73;1.77;;;;;;;;;;5011738;28;20187;-72
2024/01/16 14:05:31;;;;;;;5.27;2.17;;;;;;;;;;5008742;28;20205;-73
2024/01/16 14:07:56;;;;;;;6.03;2.27;;;;;;;;;;5010587;28;20690;-72
2024/01/16 14:10:24;;;;;;;4.37;2.13;;;;;;;;;;5010462;28;20198;-72
2024/01/16 14:12:50;;;;;;;3.63;2.30;;;;;;;;;;5010857;28;20186;-72
2024/01/16 14:15:19;;;;;;;5.10;2.07;;;;;;;;;;5012389;28;20187;-73
2024/01/16 14:20:12;;;;;;;2.67;1.70;;;;;;;;;;5063130;28;20209;-68
2024/01/16 14:22:38;;;;;;;3.23;2.13;;;;;;;;;;5066511;28;20173;-70
2024/01/16 14:25:10;;;;;;;5.37;2.17;;;;;;;;;;5064419;28;20196;-69
2024/01/16 14:27:57;;;;;;;6.90;2.27;;;;;;;;;;5065922;28;20238;-68
2024/01/16 14:30:23;;;;;;;3.83;2.20;;;;;;;;;;5037000;28;20699;-70
2024/01/16 14:32:50;;;;;;;7.17;2.50;;;;;;;;;;5048951;28;20264;-69
2024/01/16 14:35:17;;;;;;;3.87;2.40;;;;;;;;;;5045532;28;20274;-69
2024/01/16 14:37:42;;;;;;;6.90;2.10;;;;;;;;;;5045345;28;20177;-69
2024/01/16 14:40:20;;;;;;;5.83;1.87;;;;;;;;;;5023416;28;20252;-70